Time;durP1;ratioP1;P1;durP2;ratioP2;P2;SDS_P1;SDS_P2;PMS_P1;PMS_P2;Temp;Humidity;BMP_temperature;BMP_pressure;BME280_temperature;BME280_humidity;BME280_pressure;Samples;Min_cycle;Max_cycle;Signal;HPM_P1;HPM_P2
2021/10/18 00:01:00;;;;;;;;;40.75;35.75;;;;;8.18;71.18;101302.56;5045298;28;45490;-89
2021/10/18 00:03:25;;;;;;;;;35.25;34.00;;;;;8.20;70.76;101293.97;5037702;28;45482;-89
2021/10/18 00:05:50;;;;;;;;;38.50;35.25;;;;;7.87;70.83;101245.06;5037973;28;45746;-89
2021/10/18 00:08:16;;;;;;;;;37.00;34.00;;;;;9.15;70.91;101471.00;5048658;28;46825;-88
2021/10/18 00:10:44;;;;;;;;;32.50;29.75;;;;;8.63;71.01;101380.09;5067132;28;45207;-89
2021/10/18 00:13:10;;;;;;;;;35.50;34.50;;;;;8.11;70.96;101309.19;5049582;28;44919;-89
2021/10/18 00:15:35;;;;;;;;;30.25;28.25;;;;;9.16;71.39;101483.28;5022849;28;45665;-87
2021/10/18 00:18:01;;;;;;;;;35.25;34.00;;;;;8.01;71.08;101283.34;5044386;28;48146;-88
2021/10/18 00:20:27;;;;;;;;;28.50;26.75;;;;;8.57;71.21;101379.78;5053739;28;45041;-86
2021/10/18 00:22:54;;;;;;;;;35.50;31.75;;;;;8.03;71.18;101300.03;5050841;28;45465;-88
2021/10/18 00:25:20;;;;;;;;;28.00;27.50;;;;;9.09;71.11;101492.56;5021657;28;45529;-89
2021/10/18 00:27:46;;;;;;;;;33.50;31.25;;;;;7.98;71.03;101314.59;5025307;28;47711;-88
2021/10/18 00:30:13;;;;;;;;;32.00;30.50;;;;;8.87;71.09;101452.97;5031224;28;45172;-88
2021/10/18 00:32:38;;;;;;;;;35.00;34.00;;;;;7.64;70.85;101236.88;5048880;28;45253;-87
2021/10/18 00:35:04;;;;;;;;;29.75;27.00;;;;;8.72;70.91;101430.38;5040042;28;45524;-88
2021/10/18 00:37:30;;;;;;;;;33.00;30.75;;;;;8.37;71.02;101364.69;5044554;28;45461;-88
2021/10/18 00:39:55;;;;;;;;;28.00;27.00;;;;;8.61;70.83;101413.16;5019364;28;45387;-88
2021/10/18 00:42:21;;;;;;;;;31.50;30.50;;;;;8.18;71.36;101340.13;5035054;28;45637;-89
2021/10/18 00:44:49;;;;;;;;;28.75;27.75;;;;;8.82;71.08;101439.59;5035001;28;45473;-88
2021/10/18 00:47:19;;;;;;;;;30.00;28.00;;;;;8.04;70.91;101298.31;5018679;28;47239;-89
2021/10/18 00:49:44;;;;;;;;;30.00;27.75;;;;;9.10;71.23;101488.22;5036555;28;45374;-87
2021/10/18 00:52:11;;;;;;;;;31.75;27.50;;;;;8.11;71.09;101337.09;5068837;28;45355;-87
2021/10/18 00:54:37;;;;;;;;;26.00;23.00;;;;;8.07;70.91;101330.78;5036729;28;45853;-88
2021/10/18 00:57:03;;;;;;;;;32.25;29.50;;;;;8.08;71.05;101343.06;5051455;28;45821;-89
2021/10/18 00:59:29;;;;;;;;;27.00;25.50;;;;;8.06;71.13;101357.78;5068845;28;45754;-88
2021/10/18 01:01:54;;;;;;;;;23.00;22.25;;;;;8.36;71.01;101408.31;5054766;28;45541;-87
2021/10/18 01:04:21;;;;;;;;;22.75;18.75;;;;;8.45;71.20;101432.38;5076127;28;45103;-88
2021/10/18 01:06:47;;;;;;;;;30.00;29.00;;;;;8.87;71.14;101506.28;5053604;28;47075;-88
2021/10/18 01:09:13;;;;;;;;;30.25;27.75;;;;;7.85;71.23;101336.56;5066414;28;44933;-88
2021/10/18 01:11:38;;;;;;;;;31.50;28.75;;;;;8.05;71.62;101381.25;5052001;28;45437;-89
2021/10/18 01:14:04;;;;;;;;;33.75;31.00;;;;;7.61;71.48;101302.09;5064896;28;45307;-88
2021/10/18 01:16:29;;;;;;;;;36.00;32.50;;;;;8.10;71.76;101395.50;5065944;28;45366;-88
2021/10/18 01:18:55;;;;;;;;;34.25;30.75;;;;;8.64;71.63;101496.28;5047032;28;45246;-89
2021/10/18 01:21:20;;;;;;;;;25.00;24.00;;;;;8.07;71.60;101385.75;5071176;28;45117;-88
2021/10/18 01:23:45;;;;;;;;;26.50;25.50;;;;;7.84;71.25;101344.34;5039158;28;45241;-88
2021/10/18 01:26:11;;;;;;;;;35.50;30.25;;;;;8.21;72.00;101396.97;5070610;28;45372;-89
2021/10/18 01:28:36;;;;;;;;;31.25;29.25;;;;;8.02;71.56;101388.09;5052189;28;45068;-87
2021/10/18 01:31:02;;;;;;;;;37.00;34.00;;;;;8.77;71.60;101520.63;5066196;28;45308;-88
2021/10/18 01:33:27;;;;;;;;;28.50;28.00;;;;;7.73;71.56;101323.72;5047504;28;45167;-86
2021/10/18 01:35:53;;;;;;;;;32.75;28.50;;;;;8.16;71.82;101407.19;5037285;28;47049;-88
2021/10/18 01:38:19;;;;;;;;;29.00;27.75;;;;;7.99;71.72;101373.97;5047868;28;45374;-87
2021/10/18 01:40:44;;;;;;;;;28.75;28.00;;;;;7.95;71.64;101392.94;5038996;28;45230;-88
2021/10/18 01:43:09;;;;;;;;;29.75;29.25;;;;;7.84;71.73;101370.53;5041184;28;45156;-88
2021/10/18 01:45:35;;;;;;;;;33.75;32.00;;;;;8.19;71.88;101403.88;5060677;28;46108;-87
2021/10/18 01:48:00;;;;;;;;;33.25;31.50;;;;;8.23;71.98;101430.31;5051842;28;45244;-88
2021/10/18 01:50:27;;;;;;;;;30.00;28.00;;;;;8.69;72.18;101486.94;5052773;28;45108;-88
2021/10/18 01:52:54;;;;;;;;;34.50;31.75;;;;;6.98;72.12;101186.19;5070049;28;45084;-88
2021/10/18 01:55:21;;;;;;;;;31.00;28.25;;;;;8.73;71.81;101491.53;5050342;28;45757;-88
2021/10/18 01:57:48;;;;;;;;;34.50;30.50;;;;;7.82;71.57;101335.50;5056671;28;45861;-88
2021/10/18 02:00:14;;;;;;;;;28.00;28.00;;;;;8.08;71.97;101392.81;5058759;28;45564;-84
2021/10/18 02:02:39;;;;;;;;;28.50;26.50;;;;;7.38;71.77;101285.13;5051500;28;45171;-88
2021/10/18 02:05:05;;;;;;;;;25.75;25.25;;;;;7.85;72.13;101377.53;5045533;28;47289;-89
2021/10/18 02:07:31;;;;;;;;;31.00;28.75;;;;;7.61;71.96;101309.94;5030700;28;45830;-86
2021/10/18 02:09:59;;;;;;;;;31.75;28.25;;;;;7.77;71.98;101335.25;5048079;28;45498;-86
2021/10/18 02:12:24;;;;;;;;;27.50;26.75;;;;;7.77;72.46;101337.84;5041126;28;45344;-84
2021/10/18 02:14:50;;;;;;;;;28.75;25.25;;;;;8.58;72.43;101502.09;5033816;28;46608;-86
2021/10/18 02:17:16;;;;;;;;;31.75;29.50;;;;;7.74;71.84;101342.94;5033296;28;45435;-88
2021/10/18 02:19:42;;;;;;;;;32.00;30.00;;;;;7.73;72.34;101326.34;5060687;28;45689;-88
2021/10/18 02:22:07;;;;;;;;;29.75;28.00;;;;;7.82;72.20;101335.50;5035181;28;45671;-86
2021/10/18 02:24:32;;;;;;;;;34.25;29.00;;;;;7.42;72.30;101287.09;5058401;28;46142;-86
2021/10/18 02:26:58;;;;;;;;;30.50;27.50;;;;;7.45;72.07;101294.22;5036215;28;45596;-86
2021/10/18 02:29:23;;;;;;;;;30.50;29.00;;;;;6.81;72.23;101199.13;5045499;28;45534;-85
2021/10/18 02:31:49;;;;;;;;;33.00;29.00;;;;;7.40;72.35;101316.63;5026045;28;45864;-85
2021/10/18 02:34:14;;;;;;;;;28.25;26.75;;;;;8.21;72.05;101446.72;5023358;28;47932;-85
2021/10/18 02:36:40;;;;;;;;;26.00;24.25;;;;;7.00;71.82;101238.56;5044646;28;45423;-88
2021/10/18 02:39:05;;;;;;;;;27.75;26.75;;;;;7.86;72.09;101374.09;5025658;28;45738;-84
2021/10/18 02:41:31;;;;;;;;;24.00;23.25;;;;;8.48;72.19;101469.25;5027069;28;45794;-85
2021/10/18 02:43:56;;;;;;;;;27.50;25.25;;;;;7.27;71.74;101264.44;5024792;28;47080;-85
2021/10/18 02:46:21;;;;;;;;;22.50;22.00;;;;;7.56;72.06;101323.59;5023591;28;45411;-86
2021/10/18 02:48:47;;;;;;;;;28.00;26.50;;;;;7.69;72.00;101349.63;5027568;28;45588;-84
2021/10/18 02:51:12;;;;;;;;;26.50;25.25;;;;;8.17;72.09;101421.19;5025116;28;45373;-85
2021/10/18 02:53:38;;;;;;;;;26.75;23.25;;;;;7.56;72.02;101316.66;5043131;28;48266;-86
2021/10/18 02:56:03;;;;;;;;;30.00;27.25;;;;;7.94;72.34;101383.28;5044571;28;45837;-85
2021/10/18 02:58:28;;;;;;;;;21.25;20.75;;;;;8.02;72.29;101408.16;5027114;28;45498;-85
2021/10/18 03:00:54;;;;;;;;;22.25;21.25;;;;;7.69;72.11;101340.06;5026839;28;45641;-85
2021/10/18 03:03:19;;;;;;;;;28.25;24.25;;;;;8.08;72.47;101408.53;5044187;28;47082;-85
2021/10/18 03:05:47;;;;;;;;;27.50;25.25;;;;;7.48;72.60;101286.53;5027223;28;45546;-85
2021/10/18 03:08:13;;;;;;;;;29.75;28.50;;;;;7.38;72.28;101286.84;5028871;28;45875;-86
2021/10/18 03:10:41;;;;;;;;;32.50;27.00;;;;;6.93;72.39;101198.09;5043518;28;45646;-88
2021/10/18 03:13:08;;;;;;;;;27.50;26.25;;;;;8.28;72.35;101418.34;5047785;28;47080;-88
2021/10/18 03:15:33;;;;;;;;;31.50;30.25;;;;;8.20;72.68;101409.16;5034728;28;45996;-86
2021/10/18 03:17:59;;;;;;;;;28.00;26.50;;;;;8.08;72.59;101389.25;5045267;28;45581;-86
2021/10/18 03:20:24;;;;;;;;;25.75;25.50;;;;;7.19;72.85;101244.00;5024684;28;45353;-86
2021/10/18 03:22:50;;;;;;;;;31.00;28.25;;;;;8.12;72.71;101431.41;5039893;28;48122;-86
2021/10/18 03:25:15;;;;;;;;;27.75;26.25;;;;;7.56;72.94;101320.97;5067279;28;45182;-85
2021/10/18 03:27:40;;;;;;;;;29.00;28.00;;;;;7.46;72.21;101301.25;5043714;28;45021;-86
2021/10/18 03:30:07;;;;;;;;;29.50;26.50;;;;;7.43;72.13;101314.16;5036075;28;45119;-87
2021/10/18 03:32:32;;;;;;;;;30.00;28.25;;;;;8.21;72.63;101438.88;5039042;28;47565;-86
2021/10/18 03:34:57;;;;;;;;;29.50;28.25;;;;;6.85;72.46;101208.94;5063396;28;45334;-87
2021/10/18 03:37:23;;;;;;;;;30.50;28.25;;;;;7.70;72.59;101373.25;5042043;28;45248;-86
2021/10/18 03:39:48;;;;;;;;;29.75;29.25;;;;;7.68;72.85;101374.88;5048230;28;45418;-88
2021/10/18 03:42:13;;;;;;;;;32.50;30.50;;;;;7.53;72.56;101350.47;5045640;28;45383;-87
2021/10/18 03:44:39;;;;;;;;;22.75;22.25;;;;;7.93;72.43;101410.25;5027445;28;45819;-88
2021/10/18 03:47:04;;;;;;;;;24.75;24.25;;;;;7.38;72.35;101326.06;5043125;28;45553;-85
2021/10/18 03:49:29;;;;;;;;;29.25;27.75;;;;;6.64;72.18;101180.75;5045140;28;45383;-88
2021/10/18 03:51:55;;;;;;;;;27.50;26.50;;;;;8.26;72.35;101461.88;5032045;28;47043;-87
2021/10/18 03:54:21;;;;;;;;;29.50;26.50;;;;;6.71;72.41;101209.03;5057054;28;45482;-87
2021/10/18 03:56:46;;;;;;;;;28.50;27.50;;;;;7.02;72.45;101242.13;5050429;28;45560;-88
2021/10/18 03:59:11;;;;;;;;;26.50;25.00;;;;;7.16;72.41;101285.66;5044947;28;45713;-87
2021/10/18 04:01:37;;;;;;;;;25.00;24.00;;;;;7.86;72.35;101411.63;5044714;28;45511;-85
2021/10/18 04:04:02;;;;;;;;;23.00;22.25;;;;;7.06;72.27;101280.72;5024407;28;45712;-87
2021/10/18 04:06:28;;;;;;;;;32.50;27.50;;;;;7.83;72.24;101421.03;5024509;28;45388;-85
2021/10/18 04:08:54;;;;;;;;;30.50;28.75;;;;;7.61;72.80;101371.84;5036233;28;45862;-87
2021/10/18 04:11:20;;;;;;;;;33.25;30.25;;;;;8.17;72.75;101474.44;5025845;28;47493;-87
2021/10/18 04:13:45;;;;;;;;;24.75;21.75;;;;;7.85;72.47;101414.19;5053919;28;46160;-86
2021/10/18 04:16:11;;;;;;;;;27.25;23.75;;;;;6.96;72.34;101278.38;5024342;28;45389;-89
2021/10/18 04:18:37;;;;;;;;;27.25;25.75;;;;;7.02;72.61;101280.44;5024021;28;45817;-88
2021/10/18 04:21:05;;;;;;;;;30.75;27.50;;;;;8.04;72.58;101481.56;5033666;28;48430;-85
2021/10/18 04:23:31;;;;;;;;;25.75;22.75;;;;;7.16;72.38;101313.50;5046349;28;45425;-87
2021/10/18 04:25:56;;;;;;;;;25.00;23.00;;;;;6.92;72.56;101276.41;5047429;28;45287;-85
2021/10/18 04:28:22;;;;;;;;;26.75;25.75;;;;;6.67;72.62;101225.34;5063978;28;45351;-88
2021/10/18 04:30:47;;;;;;;;;26.25;23.75;;;;;7.64;72.36;101416.50;5022001;28;48079;-87
2021/10/18 04:33:13;;;;;;;;;32.25;27.50;;;;;7.05;72.32;101305.06;5057728;28;45264;-86
2021/10/18 04:35:38;;;;;;;;;25.75;25.50;;;;;6.67;72.37;101250.56;5037801;28;45567;-86
2021/10/18 04:38:04;;;;;;;;;27.50;25.25;;;;;6.42;72.38;101211.69;5038513;28;45733;-87
2021/10/18 04:40:30;;;;;;;;;25.50;23.75;;;;;7.33;72.28;101382.44;5043295;28;46130;-86
2021/10/18 04:42:56;;;;;;;;;26.25;26.00;;;;;7.76;72.92;101440.72;5016889;28;45762;-88
2021/10/18 04:45:21;;;;;;;;;27.50;24.00;;;;;6.56;72.79;101247.34;5044878;28;45332;-86
2021/10/18 04:47:49;;;;;;;;;29.00;25.75;;;;;7.41;73.00;101404.69;5068056;28;45388;-87
2021/10/18 04:50:16;;;;;;;;;28.00;25.75;;;;;6.86;72.68;101316.13;5060741;28;46178;-87
2021/10/18 04:52:41;;;;;;;;;31.00;27.00;;;;;6.84;73.08;101314.22;5075163;28;45526;-86
2021/10/18 04:55:07;;;;;;;;;24.25;21.00;;;;;8.03;72.73;101527.78;5044802;28;45759;-88
2021/10/18 04:57:33;;;;;;;;;25.00;24.75;;;;;7.00;72.62;101336.97;5058912;28;45533;-86
2021/10/18 04:59:58;;;;;;;;;25.50;24.25;;;;;7.45;72.76;101404.97;5061121;28;46428;-87
2021/10/18 05:02:24;;;;;;;;;27.25;25.00;;;;;7.80;72.68;101488.91;5060837;28;45366;-86
2021/10/18 05:04:49;;;;;;;;;25.00;23.50;;;;;7.14;72.32;101373.53;5051860;28;45673;-85
2021/10/18 05:07:14;;;;;;;;;24.75;22.50;;;;;6.96;72.51;101357.69;5061148;28;45089;-88
2021/10/18 05:09:40;;;;;;;;;26.75;26.25;;;;;7.36;73.09;101427.06;5065046;28;45937;-84
2021/10/18 05:12:05;;;;;;;;;26.50;26.25;;;;;7.36;73.04;101422.75;5044726;28;45626;-87
2021/10/18 05:14:31;;;;;;;;;28.50;26.25;;;;;7.91;72.88;101512.25;5051082;28;45087;-86
2021/10/18 05:16:56;;;;;;;;;28.75;24.50;;;;;6.92;72.45;101339.09;5046601;28;45886;-88
2021/10/18 05:19:24;;;;;;;;;27.75;27.00;;;;;7.99;72.47;101560.72;5040241;28;46985;-87
2021/10/18 05:21:49;;;;;;;;;27.50;26.25;;;;;7.81;72.98;101506.41;5050712;28;45270;-87
2021/10/18 05:24:15;;;;;;;;;27.50;27.00;;;;;7.30;72.93;101421.50;5065278;28;45317;-89
2021/10/18 05:26:43;;;;;;;;;32.50;27.00;;;;;7.13;72.63;101383.88;5062118;28;45782;-87
2021/10/18 05:29:09;;;;;;;;;29.25;25.50;;;;;7.71;72.45;101487.56;5038086;28;48281;-87
2021/10/18 05:31:34;;;;;;;;;31.25;30.00;;;;;6.93;72.74;101361.81;5041410;28;45602;-87
2021/10/18 05:34:00;;;;;;;;;31.00;27.75;;;;;7.70;72.95;101490.09;5027600;28;45441;-86
2021/10/18 05:36:25;;;;;;;;;30.50;27.75;;;;;6.22;72.88;101215.72;5034786;28;45495;-88
2021/10/18 05:38:51;;;;;;;;;30.50;27.25;;;;;6.87;72.75;101336.22;5054114;28;45483;-86
2021/10/18 05:41:19;;;;;;;;;32.25;28.25;;;;;7.96;73.02;101544.81;5031839;28;45537;-87
2021/10/18 05:43:45;;;;;;;;;32.50;31.50;;;;;7.79;72.93;101494.97;5044796;28;45558;-89
2021/10/18 05:46:10;;;;;;;;;34.50;31.50;;;;;6.90;72.97;101354.72;5054103;28;45168;-87
2021/10/18 05:48:36;;;;;;;;;34.50;30.25;;;;;6.29;72.67;101222.19;5079347;28;45718;-89
2021/10/18 05:51:02;;;;;;;;;34.25;31.25;;;;;7.96;72.68;101544.81;5067530;28;45401;-88
2021/10/18 05:53:28;;;;;;;;;29.00;27.00;;;;;7.56;72.94;101443.91;5082936;28;45268;-86
2021/10/18 05:55:53;;;;;;;;;31.00;29.75;;;;;6.93;72.88;101346.13;5072351;28;45070;-89
2021/10/18 05:58:19;;;;;;;;;33.25;29.50;;;;;7.21;72.95;101401.84;5079809;27;45242;-90
2021/10/18 06:00:44;;;;;;;;;34.75;33.25;;;;;6.94;72.77;101327.03;5071915;28;45226;-89
2021/10/18 06:03:12;;;;;;;;;31.25;28.75;;;;;7.22;72.90;101402.72;5095267;28;45228;-89
2021/10/18 06:05:44;;;;;;;;;53.50;44.50;;;;;7.16;73.50;101387.59;5095738;28;45084;-89
2021/10/18 06:08:10;;;;;;;;;69.50;55.25;;;;;7.92;73.20;101521.00;5066920;28;47792;-90
2021/10/18 06:10:36;;;;;;;;;36.50;35.75;;;;;7.02;73.66;101366.69;5074695;28;45275;-89
2021/10/18 06:13:02;;;;;;;;;43.50;38.00;;;;;7.65;73.35;101475.84;5074692;28;45191;-90
2021/10/18 06:15:28;;;;;;;;;37.75;35.75;;;;;8.10;72.94;101550.88;5074441;28;45092;-92
2021/10/18 06:17:53;;;;;;;;;36.25;34.25;;;;;6.83;73.11;101331.63;5066606;28;45569;-90
2021/10/18 06:20:21;;;;;;;;;29.75;28.00;;;;;6.65;73.36;101313.19;5036379;28;45545;-88
2021/10/18 06:22:48;;;;;;;;;38.75;32.75;;;;;8.08;73.28;101548.97;5045296;28;45356;-88
2021/10/18 06:25:13;;;;;;;;;62.75;48.75;;;;;7.09;73.19;101363.59;5038523;28;45332;-89
2021/10/18 06:27:39;;;;;;;;;56.00;46.50;;;;;8.14;73.18;101565.94;5044002;28;48443;-88
2021/10/18 06:30:06;;;;;;;;;48.75;42.25;;;;;6.97;73.03;101351.63;5064686;28;45639;-86
2021/10/18 06:32:34;;;;;;;;;55.50;44.00;;;;;7.06;73.53;101374.78;5067562;28;45261;-86
2021/10/18 06:35:00;;;;;;;;;50.25;42.50;;;;;7.27;73.37;101389.94;5057054;28;45478;-83
2021/10/18 06:37:25;;;;;;;;;49.50;41.00;;;;;8.04;73.56;101519.09;5073260;28;46039;-83
2021/10/18 06:39:51;;;;;;;;;46.00;38.25;;;;;8.32;73.54;101552.06;5049088;28;46073;-84
2021/10/18 06:42:16;;;;;;;;;42.25;39.50;;;;;8.14;73.63;101508.34;5061772;28;45310;-84
2021/10/18 06:44:42;;;;;;;;;41.00;38.00;;;;;7.27;73.46;101350.72;5056328;28;45556;-83
2021/10/18 06:47:10;;;;;;;;;45.00;39.75;;;;;7.17;72.94;101318.81;5052822;28;46213;-89
2021/10/18 06:49:36;;;;;;;;;50.75;41.50;;;;;8.01;73.26;101463.94;5048738;28;46609;-82
2021/10/18 06:52:02;;;;;;;;;44.75;39.00;;;;;8.66;73.03;101578.47;5056878;28;45466;-88
2021/10/18 06:54:36;;;;;;;;;49.25;42.00;;;;;6.81;73.19;101215.69;5044072;28;45478;-87
2021/10/18 06:57:01;;;;;;;;;45.50;39.25;;;;;8.45;73.44;101497.88;5047260;28;48063;-81
2021/10/18 06:59:27;;;;;;;;;44.75;38.00;;;;;8.39;73.22;101480.94;5049911;28;45518;-82
2021/10/18 07:01:53;;;;;;;;;39.75;35.25;;;;;8.65;73.04;101521.66;5066066;28;46076;-82
2021/10/18 07:04:18;;;;;;;;;42.25;38.50;;;;;8.63;73.12;101502.34;5075154;28;45255;-82
2021/10/18 07:06:44;;;;;;;;;39.50;35.50;;;;;9.05;73.64;101556.16;5076727;28;45628;-81
2021/10/18 07:09:10;;;;;;;;;38.75;37.00;;;;;9.10;73.11;101562.56;5073696;28;45523;-81
2021/10/18 07:11:35;;;;;;;;;22.75;19.75;;;;;8.76;73.34;101489.06;5072449;28;45749;-83
2021/10/18 07:14:01;;;;;;;;;38.50;35.25;;;;;8.64;73.04;101460.47;5054990;28;45267;-82
2021/10/18 07:16:26;;;;;;;;;44.50;36.25;;;;;8.86;73.15;101488.72;5070342;28;45793;-82
2021/10/18 07:18:51;;;;;;;;;44.25;37.25;;;;;8.91;73.31;101491.59;5059566;28;45356;-82
2021/10/18 07:21:17;;;;;;;;;51.00;42.67;;;;;9.35;72.90;101556.88;5078145;28;45118;-82
2021/10/18 07:23:44;;;;;;;;;42.00;38.25;;;;;9.57;73.43;101572.03;5071697;28;45475;-83
2021/10/18 07:26:09;;;;;;;;;39.75;36.25;;;;;9.24;73.12;101502.97;5065049;28;46220;-82
2021/10/18 07:28:36;;;;;;;;;35.00;34.00;;;;;9.18;73.17;101477.31;5056352;28;45371;-81
2021/10/18 07:31:01;;;;;;;;;42.75;35.75;;;;;9.08;73.24;101446.19;5073829;28;45846;-84
2021/10/18 07:33:27;;;;;;;;;38.25;35.25;;;;;9.48;73.34;101492.84;5077784;28;45254;-84
2021/10/18 07:35:55;;;;;;;;;67.75;53.00;;;;;9.42;73.28;101469.81;5059686;28;45385;-85
2021/10/18 07:38:23;;;;;;;;;48.75;40.25;;;;;9.79;72.98;101519.78;5041218;28;46002;-83
2021/10/18 07:40:49;;;;;;;;;45.50;38.50;;;;;10.25;72.85;101584.25;5060611;28;45139;-84
2021/10/18 07:43:15;;;;;;;;;38.00;36.00;;;;;9.64;73.01;101448.16;5038813;28;45049;-83
2021/10/18 07:45:40;;;;;;;;;32.00;29.50;;;;;9.45;72.55;101387.72;5052077;28;45624;-83
2021/10/18 07:48:05;;;;;;;;;33.50;32.50;;;;;9.48;72.44;101393.13;5036422;28;45354;-86
2021/10/18 07:50:34;;;;;;;;;35.25;32.25;;;;;9.61;72.40;101397.25;5053842;28;45371;-86
2021/10/18 07:52:59;;;;;;;;;34.75;33.00;;;;;10.20;72.48;101472.78;5055318;28;45661;-85
2021/10/18 07:55:28;;;;;;;;;37.25;33.50;;;;;9.09;71.86;101266.16;5060795;28;46097;-86
2021/10/18 07:57:56;;;;;;;;;34.00;32.75;;;;;9.28;72.23;101280.25;5045445;28;46086;-85
2021/10/18 08:00:23;;;;;;;;;31.50;31.00;;;;;9.88;72.15;101389.81;5042552;28;45626;-84
2021/10/18 08:02:49;;;;;;;;;31.00;29.00;;;;;10.16;72.28;101429.69;5040697;28;45089;-85
2021/10/18 08:05:18;;;;;;;;;35.50;33.50;;;;;9.18;71.96;101245.63;5041632;28;47166;-85
2021/10/18 08:07:46;;;;;;;;;32.25;31.50;;;;;10.44;71.94;101445.06;5059241;28;45680;-85
2021/10/18 08:10:13;;;;;;;;;35.00;32.75;;;;;11.08;72.25;101546.97;5077793;28;45199;-84
2021/10/18 08:12:39;;;;;;;;;32.00;30.50;;;;;11.29;72.37;101581.28;5060388;28;45383;-84
2021/10/18 08:15:04;;;;;;;;;40.25;36.75;;;;;9.83;72.30;101313.44;5057850;28;47584;-85
2021/10/18 08:17:30;;;;;;;;;60.50;48.75;;;;;10.02;72.04;101336.22;5076697;28;45583;-85
2021/10/18 08:19:55;;;;;;;;;33.25;31.50;;;;;10.04;71.55;101342.41;5059456;28;45756;-85
2021/10/18 08:22:20;;;;;;;;;30.50;28.75;;;;;11.24;71.33;101531.06;5057571;28;45017;-85
2021/10/18 08:24:46;;;;;;;;;35.75;31.50;;;;;9.87;70.96;101283.91;5072043;28;45489;-86
2021/10/18 08:27:11;;;;;;;;;30.25;28.75;;;;;10.51;71.43;101407.69;5076627;28;45132;-85
2021/10/18 08:29:37;;;;;;;;;29.25;28.50;;;;;10.79;70.79;101465.06;5076445;28;45060;-85
2021/10/18 08:32:03;;;;;;;;;30.50;28.25;;;;;10.56;71.06;101407.91;5060026;28;45053;-85
2021/10/18 08:34:28;;;;;;;;;36.50;32.50;;;;;10.96;70.57;101451.75;5074195;28;45417;-85
2021/10/18 08:36:53;;;;;;;;;33.00;31.00;;;;;10.48;70.56;101338.31;5059925;28;45404;-84
2021/10/18 08:42:06;;;;;;;;;27.75;27.00;;;;;10.54;70.63;101321.13;5068941;28;45453;-86
2021/10/18 08:44:42;;;;;;;;;32.00;30.00;;;;;10.85;70.13;101354.88;5056166;28;47527;-84
2021/10/18 08:47:12;;;;;;;;;28.00;27.50;;;;;11.63;70.16;101489.78;5059450;28;45648;-85
2021/10/18 08:49:37;;;;;;;;;35.00;33.00;;;;;11.69;70.49;101477.72;5059495;28;45276;-85
2021/10/18 08:52:04;;;;;;;;;30.25;28.75;;;;;11.05;70.09;101350.47;5057769;28;45235;-85
2021/10/18 08:54:33;;;;;;;;;37.75;34.00;;;;;11.00;70.31;101317.81;5048799;28;47539;-85
2021/10/18 08:56:59;;;;;;;;;30.25;28.25;;;;;10.87;70.05;101277.78;5049894;28;46268;-85
2021/10/18 08:59:25;;;;;;;;;32.50;29.25;;;;;11.49;70.15;101383.00;5052291;28;45400;-85
2021/10/18 09:01:58;;;;;;;;;31.50;29.00;;;;;12.56;70.05;101541.84;5048388;28;45946;-86
2021/10/18 09:04:30;;;;;;;;;38.25;32.50;;;;;12.72;69.90;101572.41;5056862;28;47617;-85
2021/10/18 09:07:01;;;;;;;;;33.00;30.50;;;;;12.71;70.08;101547.75;5053440;28;45579;-86
2021/10/18 09:09:30;;;;;;;;;31.00;28.75;;;;;12.72;70.05;101538.09;5036440;28;45700;-85
2021/10/18 09:11:59;;;;;;;;;31.75;28.25;;;;;12.71;70.50;101516.09;5043088;28;45286;-85
2021/10/18 09:14:28;;;;;;;;;27.50;27.50;;;;;13.09;70.11;101569.41;5048403;28;47160;-85
2021/10/18 09:17:00;;;;;;;;;30.75;29.50;;;;;13.08;69.95;101531.56;5053809;28;45460;-85
2021/10/18 09:19:26;;;;;;;;;27.25;25.00;;;;;13.25;69.94;101558.63;5056335;28;45534;-84
2021/10/18 09:21:55;;;;;;;;;45.25;38.25;;;;;11.66;69.60;101267.81;5044613;28;45588;-85
2021/10/18 09:24:29;;;;;;;;;32.25;28.25;;;;;13.39;69.75;101553.81;5043197;28;47340;-85
2021/10/18 09:26:58;;;;;;;;;38.75;34.25;;;;;12.95;69.68;101481.81;5037484;28;45827;-85
2021/10/18 09:29:36;;;;;;;;;26.00;24.75;;;;;13.51;69.44;101554.28;5042555;28;45545;-84
2021/10/18 09:32:03;;;;;;;;;55.75;44.00;;;;;13.33;69.50;101514.00;5045847;28;45399;-85
2021/10/18 09:34:34;;;;;;;;;25.50;25.25;;;;;12.68;69.18;101368.28;5072164;28;45761;-84
2021/10/18 09:37:12;;;;;;;;;29.00;27.25;;;;;13.65;69.00;101546.84;5078113;28;45202;-84
2021/10/18 09:39:41;;;;;;;;;32.75;30.25;;;;;13.68;69.22;101552.22;5057401;28;45364;-84
2021/10/18 09:42:09;;;;;;;;;29.25;27.25;;;;;13.73;68.71;101561.19;5056309;28;45299;-84
2021/10/18 10:53:39;;;;;;;;;32.25;29.00;;;;;14.94;67.96;101552.81;5058664;28;45180;-84
2021/10/18 10:56:47;;;;;;;;;27.00;25.50;;;;;13.84;68.59;101352.81;5043825;28;45527;-85
2021/10/18 10:59:21;;;;;;;;;29.25;27.00;;;;;14.60;68.23;101453.00;5048764;28;46010;-85
2021/10/18 11:01:53;;;;;;;;;27.00;25.50;;;;;15.27;68.39;101546.72;5067353;28;44876;-85
2021/10/18 11:04:30;;;;;;;;;28.75;26.00;;;;;15.39;68.24;101541.75;5050622;28;48593;-85
2021/10/18 11:06:57;;;;;;;;;28.25;27.25;;;;;15.10;68.03;101469.44;5034320;28;46303;-84
2021/10/18 11:09:47;;;;;;;;;24.25;20.75;;;;;15.48;67.58;101526.13;5060262;28;45519;-85
2021/10/18 11:12:25;;;;;;;;;30.00;28.25;;;;;15.64;68.14;101522.16;5042388;28;45543;-84
2021/10/18 11:15:11;;;;;;;;;25.50;23.50;;;;;15.80;68.01;101527.84;5071243;28;45382;-85
2021/10/18 11:17:40;;;;;;;;;26.25;24.00;;;;;15.12;67.88;101387.38;5038530;28;45979;-85
2021/10/18 11:20:10;;;;;;;;;31.25;27.75;;;;;15.75;67.45;101466.75;5067130;28;45319;-84
2021/10/18 11:22:37;;;;;;;;;27.25;27.25;;;;;15.45;66.83;101428.00;5047255;28;45599;-85
2021/10/18 11:25:09;;;;;;;;;24.75;23.75;;;;;15.14;67.21;101343.34;5064992;28;45552;-85
2021/10/18 11:27:37;;;;;;;;;25.50;25.00;;;;;15.53;67.10;101409.66;5065660;28;45185;-84
2021/10/18 11:30:09;;;;;;;;;28.00;24.25;;;;;16.02;67.17;101460.34;5065129;28;45078;-85
2021/10/18 11:32:35;;;;;;;;;25.00;23.25;;;;;16.38;67.13;101523.97;5079147;28;45049;-85
2021/10/18 11:35:18;;;;;;;;;28.25;26.75;;;;;16.39;66.66;101547.88;5078588;28;45571;-85
2021/10/18 11:38:05;;;;;;;;;25.25;24.50;;;;;15.84;66.86;101426.34;5076229;28;45604;-84
2021/10/18 11:40:38;;;;;;;;;31.25;30.25;;;;;16.43;66.70;101507.28;5063743;28;45279;-85
2021/10/18 11:43:06;;;;;;;;;30.75;30.50;;;;;14.96;66.76;101251.09;5070419;28;44969;-84
2021/10/18 11:45:35;;;;;;;;;28.50;28.00;;;;;15.58;66.92;101332.94;5069106;28;45115;-83
2021/10/18 11:48:07;;;;;;;;;29.25;28.50;;;;;15.63;67.36;101311.00;5068567;28;45259;-85
2021/10/18 11:50:36;;;;;;;;;27.50;25.00;;;;;16.65;66.93;101475.91;5057421;28;45195;-85
2021/10/18 11:53:09;;;;;;;;;26.00;25.50;;;;;16.58;67.07;101480.22;5035422;28;45537;-84
2021/10/18 11:55:40;;;;;;;;;25.75;25.75;;;;;16.71;67.06;101478.72;5053244;28;47428;-84
2021/10/18 11:58:07;;;;;;;;;26.50;26.00;;;;;15.94;67.36;101343.50;5032810;28;46300;-84
2021/10/18 12:00:41;;;;;;;;;23.25;23.00;;;;;15.53;66.88;101260.41;5060525;28;45758;-84
2021/10/18 12:03:11;;;;;;;;;25.75;25.25;;;;;16.02;67.27;101341.03;5072900;28;45028;-84
2021/10/18 12:05:43;;;;;;;;;25.00;24.50;;;;;15.62;67.30;101268.56;5041962;28;47088;-84
2021/10/18 12:08:11;;;;;;;;;25.75;25.75;;;;;16.42;67.41;101382.56;5030240;28;46053;-84
2021/10/18 12:10:38;;;;;;;;;26.00;25.50;;;;;16.77;67.00;101405.44;5042893;28;45516;-85
2021/10/18 12:13:25;;;;;;;;;24.50;23.00;;;;;15.89;67.19;101205.56;5059112;28;45771;-84
2021/10/18 12:16:02;;;;;;;;;23.75;22.50;;;;;17.51;66.41;101439.56;5036112;28;48017;-85
2021/10/18 12:18:49;;;;;;;;;21.75;20.50;;;;;17.81;66.55;101433.00;5031679;28;46124;-85
2021/10/18 12:21:26;;;;;;;;;23.50;22.75;;;;;17.95;65.38;101319.75;5046733;28;45543;-85
2021/10/18 12:23:54;;;;;;;;;22.25;21.50;;;;;19.37;64.30;101413.72;5034679;28;45475;-85
2021/10/18 12:26:20;;;;;;;;;22.00;21.00;;;;;18.56;62.76;101263.72;5037005;28;47180;-85